Time;durP1;ratioP1;P1;durP2;ratioP2;P2;SDS_P1;SDS_P2;PMS_P1;PMS_P2;Temp;Humidity;BMP_temperature;BMP_pressure;BME280_temperature;BME280_humidity;BME280_pressure;Samples;Min_cycle;Max_cycle;Signal;HPM_P1;HPM_P2
2022/10/13 00:01:08;;;;;;;5.90;3.90;;;;;;;;;;5027300;28;20235;-61
2022/10/13 00:03:35;;;;;;;6.23;4.37;;;;;;;;;;5027083;28;20658;-61
2022/10/13 00:06:05;;;;;;;3.87;3.50;;;;;;;;;;5026904;28;20651;-60
2022/10/13 00:08:33;;;;;;;4.80;3.30;;;;;;;;;;5027782;28;20240;-60
2022/10/13 00:11:01;;;;;;;6.87;3.93;;;;;;;;;;5025942;28;20204;-60
2022/10/13 00:13:28;;;;;;;6.33;4.13;;;;;;;;;;5027497;28;20197;-60
2022/10/13 00:15:55;;;;;;;3.70;3.40;;;;;;;;;;5026724;28;20236;-61
2022/10/13 00:18:22;;;;;;;4.13;3.57;;;;;;;;;;5027647;28;20213;-61
2022/10/13 00:20:50;;;;;;;3.57;3.27;;;;;;;;;;5027296;28;20204;-60
2022/10/13 00:23:18;;;;;;;6.03;4.43;;;;;;;;;;5026847;28;20298;-61
2022/10/13 00:25:46;;;;;;;4.53;4.00;;;;;;;;;;5027329;28;20317;-61
2022/10/13 00:28:15;;;;;;;4.37;3.70;;;;;;;;;;5027641;28;20250;-61
2022/10/13 00:30:42;;;;;;;5.73;4.03;;;;;;;;;;5028018;28;20212;-61
2022/10/13 00:33:10;;;;;;;4.13;3.80;;;;;;;;;;5028051;28;20205;-61
2022/10/13 00:35:40;;;;;;;4.07;3.47;;;;;;;;;;5027911;28;20220;-61
2022/10/13 00:38:07;;;;;;;5.03;4.00;;;;;;;;;;5024617;28;20705;-60
2022/10/13 00:40:34;;;;;;;4.63;4.03;;;;;;;;;;5025596;28;20215;-61
2022/10/13 00:43:01;;;;;;;8.53;4.73;;;;;;;;;;5025424;28;20263;-60
2022/10/13 00:45:30;;;;;;;4.63;3.50;;;;;;;;;;5027218;28;20588;-60
2022/10/13 00:47:59;;;;;;;4.13;3.53;;;;;;;;;;5025808;28;20738;-60
2022/10/13 00:50:28;;;;;;;3.77;3.47;;;;;;;;;;5027590;28;20299;-61
2022/10/13 00:52:56;;;;;;;3.43;3.10;;;;;;;;;;5027806;28;20207;-61
2022/10/13 00:55:26;;;;;;;4.40;3.53;;;;;;;;;;5031480;28;20220;-61
2022/10/13 00:57:54;;;;;;;3.53;3.07;;;;;;;;;;5031636;28;20215;-60
2022/10/13 01:00:23;;;;;;;3.93;3.33;;;;;;;;;;5028363;28;20655;-60
2022/10/13 01:02:51;;;;;;;3.93;3.10;;;;;;;;;;5031303;28;20209;-61
2022/10/13 01:05:20;;;;;;;3.40;3.00;;;;;;;;;;5029690;28;20207;-61
2022/10/13 01:07:48;;;;;;;3.90;3.33;;;;;;;;;;5031780;28;20200;-60
2022/10/13 01:10:23;;;;;;;6.23;4.10;;;;;;;;;;5031182;28;20291;-60
2022/10/13 01:12:53;;;;;;;9.23;3.87;;;;;;;;;;5027976;28;20203;-60
2022/10/13 01:15:23;;;;;;;5.60;3.50;;;;;;;;;;5030902;28;20769;-61
2022/10/13 01:17:55;;;;;;;4.97;3.73;;;;;;;;;;5031770;28;20212;-60
2022/10/13 01:20:38;;;;;;;9.33;4.27;;;;;;;;;;5030747;28;20208;-60
2022/10/13 01:23:15;;;;;;;9.53;4.47;;;;;;;;;;5030390;28;20204;-61
2022/10/13 01:25:52;;;;;;;8.87;4.43;;;;;;;;;;5030541;28;20226;-60
2022/10/13 01:28:35;;;;;;;5.83;4.50;;;;;;;;;;5030733;28;20585;-60
2022/10/13 01:31:07;;;;;;;5.40;4.57;;;;;;;;;;5026475;28;20216;-61
2022/10/13 01:33:37;;;;;;;5.77;4.03;;;;;;;;;;5031234;28;20208;-61
2022/10/13 01:36:07;;;;;;;9.77;4.30;;;;;;;;;;5031029;28;20224;-60
2022/10/13 01:38:37;;;;;;;11.10;4.70;;;;;;;;;;5030442;28;20212;-61
2022/10/13 01:41:08;;;;;;;8.40;5.03;;;;;;;;;;5030580;28;20207;-61
2022/10/13 01:43:37;;;;;;;18.57;6.53;;;;;;;;;;5024121;28;20211;-60
2022/10/13 01:46:08;;;;;;;9.60;5.40;;;;;;;;;;5030932;28;20216;-61
2022/10/13 01:48:36;;;;;;;13.27;5.93;;;;;;;;;;5029401;28;20575;-61
2022/10/13 01:51:04;;;;;;;8.70;5.03;;;;;;;;;;5028128;28;20204;-61
2022/10/13 01:53:32;;;;;;;17.90;7.17;;;;;;;;;;5030668;28;20303;-61
2022/10/13 01:56:00;;;;;;;28.47;9.47;;;;;;;;;;5037183;28;20721;-60
2022/10/13 01:58:29;;;;;;;25.20;8.50;;;;;;;;;;5030516;28;20208;-60
2022/10/13 02:01:03;;;;;;;19.20;7.60;;;;;;;;;;5030968;28;20201;-61
2022/10/13 02:03:36;;;;;;;19.03;8.37;;;;;;;;;;5029132;28;20231;-60
2022/10/13 02:06:08;;;;;;;22.43;7.83;;;;;;;;;;5028269;28;20208;-61
2022/10/13 02:08:38;;;;;;;15.23;6.60;;;;;;;;;;5029229;28;20212;-60
2022/10/13 02:11:13;;;;;;;14.20;6.40;;;;;;;;;;5030210;28;20200;-60
2022/10/13 02:13:44;;;;;;;12.17;5.77;;;;;;;;;;5030203;28;20204;-60
2022/10/13 02:16:11;;;;;;;15.53;5.70;;;;;;;;;;5029277;28;20239;-61
2022/10/13 02:18:40;;;;;;;10.40;5.53;;;;;;;;;;5029537;28;20207;-60
2022/10/13 02:21:07;;;;;;;17.63;6.17;;;;;;;;;;5030034;28;20215;-60
2022/10/13 02:23:35;;;;;;;14.23;5.27;;;;;;;;;;5028916;28;20642;-61
2022/10/13 02:26:02;;;;;;;16.83;6.67;;;;;;;;;;5029180;28;20213;-61
2022/10/13 02:28:29;;;;;;;13.73;6.70;;;;;;;;;;5028818;28;20219;-60
2022/10/13 02:30:56;;;;;;;11.77;5.67;;;;;;;;;;5029016;28;20765;-60
2022/10/13 02:33:23;;;;;;;12.83;5.80;;;;;;;;;;5026155;28;20322;-60
2022/10/13 02:35:51;;;;;;;18.50;6.03;;;;;;;;;;5029084;28;20231;-60
2022/10/13 02:38:19;;;;;;;15.87;7.50;;;;;;;;;;5028046;28;20200;-61
2022/10/13 02:40:46;;;;;;;15.87;6.40;;;;;;;;;;5028740;28;20218;-61
2022/10/13 02:43:13;;;;;;;14.67;6.93;;;;;;;;;;5029949;28;20211;-60
2022/10/13 02:45:40;;;;;;;15.93;7.47;;;;;;;;;;5026669;28;20204;-61
2022/10/13 02:48:07;;;;;;;13.33;6.47;;;;;;;;;;5029243;28;20204;-61
2022/10/13 02:50:34;;;;;;;13.23;7.23;;;;;;;;;;5029411;28;20200;-61
2022/10/13 02:53:03;;;;;;;22.50;9.27;;;;;;;;;;5029832;28;20215;-60
2022/10/13 02:55:30;;;;;;;20.97;8.93;;;;;;;;;;5029651;28;20227;-61
2022/10/13 02:57:57;;;;;;;23.93;7.70;;;;;;;;;;5029990;28;20322;-60
2022/10/13 03:00:24;;;;;;;15.80;7.53;;;;;;;;;;5028828;28;20216;-60
2022/10/13 03:02:51;;;;;;;25.17;9.37;;;;;;;;;;5027740;28;20204;-60
2022/10/13 03:05:18;;;;;;;24.30;7.70;;;;;;;;;;5028578;28;20208;-60
2022/10/13 03:07:45;;;;;;;13.20;6.33;;;;;;;;;;5028428;28;20227;-60
2022/10/13 03:10:14;;;;;;;18.57;7.83;;;;;;;;;;5027650;28;20667;-61
2022/10/13 03:12:41;;;;;;;16.53;7.47;;;;;;;;;;5028138;28;20200;-60
2022/10/13 03:15:08;;;;;;;13.23;6.43;;;;;;;;;;5028077;28;20219;-60
2022/10/13 03:17:35;;;;;;;18.83;7.77;;;;;;;;;;5028068;28;20235;-60
2022/10/13 03:20:03;;;;;;;20.53;7.40;;;;;;;;;;5027869;28;20211;-60
2022/10/13 03:22:31;;;;;;;23.10;7.87;;;;;;;;;;5028668;28;20212;-60
2022/10/13 03:24:59;;;;;;;17.17;6.60;;;;;;;;;;5028346;28;20223;-60
2022/10/13 03:27:27;;;;;;;17.67;7.20;;;;;;;;;;5028047;28;20232;-60
2022/10/13 03:29:54;;;;;;;11.77;5.90;;;;;;;;;;5027760;28;20290;-60
2022/10/13 03:32:21;;;;;;;17.77;6.47;;;;;;;;;;5028414;28;20959;-60
2022/10/13 03:34:48;;;;;;;20.00;6.50;;;;;;;;;;5027503;28;20219;-60
2022/10/13 03:37:15;;;;;;;12.67;5.80;;;;;;;;;;5028087;28;20227;-60
2022/10/13 03:39:42;;;;;;;11.50;5.50;;;;;;;;;;5027726;28;20205;-60
2022/10/13 03:42:09;;;;;;;12.53;5.43;;;;;;;;;;5028215;28;20204;-60
2022/10/13 03:44:38;;;;;;;11.53;6.30;;;;;;;;;;5027993;28;20212;-60
2022/10/13 03:47:05;;;;;;;11.93;6.53;;;;;;;;;;5027556;28;20704;-60
2022/10/13 03:49:32;;;;;;;8.53;5.43;;;;;;;;;;5027811;28;20223;-60
2022/10/13 03:51:59;;;;;;;17.33;6.27;;;;;;;;;;5027976;28;20836;-60
2022/10/13 03:54:26;;;;;;;13.77;6.50;;;;;;;;;;5028000;28;20295;-60
2022/10/13 03:56:53;;;;;;;9.43;4.97;;;;;;;;;;5027922;28;20229;-60
2022/10/13 03:59:20;;;;;;;7.67;4.87;;;;;;;;;;5028529;28;20196;-61
2022/10/13 04:01:48;;;;;;;10.60;4.73;;;;;;;;;;5027747;28;20235;-60
2022/10/13 04:04:15;;;;;;;7.03;5.00;;;;;;;;;;5025001;28;20726;-60
2022/10/13 04:06:42;;;;;;;10.90;4.93;;;;;;;;;;5028040;28;20578;-61
2022/10/13 04:09:10;;;;;;;10.17;4.90;;;;;;;;;;5028408;28;20224;-61
2022/10/13 04:11:37;;;;;;;8.60;5.10;;;;;;;;;;5028544;28;20204;-61
2022/10/13 04:14:04;;;;;;;7.77;4.70;;;;;;;;;;5027995;28;20219;-61
2022/10/13 04:16:31;;;;;;;7.50;5.03;;;;;;;;;;5027825;28;20589;-60
2022/10/13 04:19:01;;;;;;;7.90;5.27;;;;;;;;;;5028335;28;20212;-60
2022/10/13 04:21:28;;;;;;;8.07;4.73;;;;;;;;;;5027512;28;20467;-61
2022/10/13 04:23:56;;;;;;;7.43;4.67;;;;;;;;;;5012818;28;20204;-61
2022/10/13 04:26:25;;;;;;;6.97;4.83;;;;;;;;;;5024457;28;20281;-61
2022/10/13 04:28:52;;;;;;;7.80;5.00;;;;;;;;;;5028635;28;20208;-60
2022/10/13 04:31:20;;;;;;;7.10;4.57;;;;;;;;;;5028520;28;20303;-61
2022/10/13 04:33:48;;;;;;;6.63;4.83;;;;;;;;;;5028476;28;20200;-61
2022/10/13 04:36:16;;;;;;;10.03;5.33;;;;;;;;;;5017374;28;20597;-60
2022/10/13 04:38:43;;;;;;;10.60;4.50;;;;;;;;;;5028709;28;20212;-61
2022/10/13 04:41:12;;;;;;;8.77;5.37;;;;;;;;;;5028227;28;20204;-60
2022/10/13 04:43:39;;;;;;;6.10;5.03;;;;;;;;;;5028141;28;20216;-61
2022/10/13 04:46:07;;;;;;;6.37;4.33;;;;;;;;;;5027316;28;20223;-60
2022/10/13 04:48:34;;;;;;;7.57;5.40;;;;;;;;;;5028442;28;20200;-60
2022/10/13 04:51:02;;;;;;;10.50;5.40;;;;;;;;;;5028110;28;20589;-60
2022/10/13 04:53:31;;;;;;;11.57;5.00;;;;;;;;;;5027718;28;20250;-60
2022/10/13 04:56:01;;;;;;;12.63;5.27;;;;;;;;;;5018355;28;20209;-61
2022/10/13 04:58:28;;;;;;;7.43;5.00;;;;;;;;;;5023203;28;20588;-60
2022/10/13 05:00:55;;;;;;;6.67;4.13;;;;;;;;;;5027624;28;20749;-61
2022/10/13 05:03:22;;;;;;;7.57;4.50;;;;;;;;;;5025139;28;20657;-61
2022/10/13 05:05:49;;;;;;;7.07;5.00;;;;;;;;;;5025662;28;20212;-61
2022/10/13 05:08:16;;;;;;;8.33;5.20;;;;;;;;;;5027825;28;20215;-61
2022/10/13 05:10:53;;;;;;;6.60;4.63;;;;;;;;;;5027353;28;20212;-61
2022/10/13 05:13:20;;;;;;;11.80;5.33;;;;;;;;;;5028163;28;20230;-61
2022/10/13 05:15:47;;;;;;;7.73;5.40;;;;;;;;;;5021573;28;20208;-61
2022/10/13 05:18:14;;;;;;;8.90;4.67;;;;;;;;;;5026789;28;20596;-60
2022/10/13 05:20:41;;;;;;;6.63;4.50;;;;;;;;;;5027508;28;20205;-61
2022/10/13 05:23:08;;;;;;;9.93;5.27;;;;;;;;;;5027033;28;20209;-61
2022/10/13 05:25:35;;;;;;;9.17;5.57;;;;;;;;;;5024234;28;20331;-60
2022/10/13 05:28:04;;;;;;;8.13;4.93;;;;;;;;;;5026852;28;20224;-60
2022/10/13 05:30:31;;;;;;;11.53;5.67;;;;;;;;;;5017962;28;20209;-60
2022/10/13 05:32:58;;;;;;;6.70;4.90;;;;;;;;;;5026835;28;20212;-60
2022/10/13 05:35:26;;;;;;;11.30;5.47;;;;;;;;;;5026338;28;20201;-62
2022/10/13 05:37:53;;;;;;;13.90;5.50;;;;;;;;;;5026585;28;20236;-59
2022/10/13 05:40:20;;;;;;;10.47;4.83;;;;;;;;;;5029677;28;20197;-59
2022/10/13 05:42:47;;;;;;;7.73;4.80;;;;;;;;;;5028877;28;20200;-60
2022/10/13 05:45:16;;;;;;;6.37;4.40;;;;;;;;;;5030282;28;20593;-62
2022/10/13 05:47:43;;;;;;;6.87;5.07;;;;;;;;;;5029874;28;20205;-59
2022/10/13 05:50:10;;;;;;;5.13;4.50;;;;;;;;;;5030146;28;20212;-59
2022/10/13 05:52:38;;;;;;;5.30;4.27;;;;;;;;;;5029520;28;20205;-59
2022/10/13 05:55:06;;;;;;;6.10;4.20;;;;;;;;;;5029623;28;20200;-60
2022/10/13 05:57:35;;;;;;;4.57;3.70;;;;;;;;;;5021159;28;20746;-59
2022/10/13 06:00:04;;;;;;;4.07;3.67;;;;;;;;;;5010324;28;20216;-59
2022/10/13 06:02:35;;;;;;;5.63;3.70;;;;;;;;;;5010171;28;20235;-59
2022/10/13 06:05:02;;;;;;;3.57;3.27;;;;;;;;;;5010545;28;20223;-60
2022/10/13 06:07:30;;;;;;;4.40;3.70;;;;;;;;;;5010434;28;20209;-59
2022/10/13 06:09:57;;;;;;;6.43;4.00;;;;;;;;;;5021124;28;20208;-59
2022/10/13 06:12:25;;;;;;;4.47;3.97;;;;;;;;;;5030118;28;20208;-60
2022/10/13 06:14:52;;;;;;;4.17;3.83;;;;;;;;;;5029953;28;20229;-60
2022/10/13 06:17:19;;;;;;;9.37;5.07;;;;;;;;;;5030154;28;20595;-60
2022/10/13 06:19:47;;;;;;;7.03;4.20;;;;;;;;;;5030041;28;20255;-59
2022/10/13 06:22:14;;;;;;;4.50;4.10;;;;;;;;;;5029952;28;20307;-59
2022/10/13 06:24:41;;;;;;;8.83;4.30;;;;;;;;;;5030028;28;20216;-60
2022/10/13 06:27:08;;;;;;;6.27;4.67;;;;;;;;;;5029828;28;20236;-60
2022/10/13 06:29:36;;;;;;;5.40;4.90;;;;;;;;;;5029795;28;20243;-60
2022/10/13 06:32:03;;;;;;;5.27;4.10;;;;;;;;;;5029712;28;20648;-61
2022/10/13 06:34:30;;;;;;;8.13;4.83;;;;;;;;;;5029229;28;20207;-58
2022/10/13 06:36:58;;;;;;;6.03;5.00;;;;;;;;;;5029312;28;20340;-58
2022/10/13 06:39:25;;;;;;;5.97;4.23;;;;;;;;;;5029410;28;20212;-58
2022/10/13 06:41:54;;;;;;;6.60;4.77;;;;;;;;;;5029444;28;20240;-58
2022/10/13 06:44:21;;;;;;;7.43;4.97;;;;;;;;;;5029207;28;20227;-60
2022/10/13 06:46:48;;;;;;;7.03;4.50;;;;;;;;;;5029549;28;20197;-60
2022/10/13 06:49:15;;;;;;;7.60;5.13;;;;;;;;;;5029439;28;20216;-60
2022/10/13 06:51:42;;;;;;;6.57;4.73;;;;;;;;;;5029038;28;20208;-60
2022/10/13 06:54:11;;;;;;;9.10;5.70;;;;;;;;;;5029441;28;20219;-60
2022/10/13 06:56:38;;;;;;;11.00;6.43;;;;;;;;;;5017649;28;20690;-60
2022/10/13 06:59:05;;;;;;;10.90;5.43;;;;;;;;;;5028806;28;20215;-60
2022/10/13 07:01:32;;;;;;;9.63;6.30;;;;;;;;;;5029187;28;20211;-60
2022/10/13 07:03:59;;;;;;;6.93;5.30;;;;;;;;;;5029190;28;20228;-59
2022/10/13 07:06:26;;;;;;;7.13;4.97;;;;;;;;;;5029177;28;20212;-60
2022/10/13 07:08:53;;;;;;;10.57;5.67;;;;;;;;;;5028685;28;20216;-59
2022/10/13 07:11:22;;;;;;;18.07;6.70;;;;;;;;;;5029021;28;20204;-60
2022/10/13 07:13:49;;;;;;;13.57;6.90;;;;;;;;;;5028292;28;20295;-59
2022/10/13 07:16:16;;;;;;;11.87;6.23;;;;;;;;;;5027902;28;20208;-59
2022/10/13 07:18:43;;;;;;;12.07;6.40;;;;;;;;;;5028197;28;20640;-60
2022/10/13 07:21:10;;;;;;;15.90;6.40;;;;;;;;;;5028475;28;20211;-60
2022/10/13 07:23:38;;;;;;;12.13;5.47;;;;;;;;;;5028550;28;20211;-61
2022/10/13 07:26:07;;;;;;;11.87;6.10;;;;;;;;;;5028273;28;20204;-60
2022/10/13 07:28:36;;;;;;;16.63;7.13;;;;;;;;;;5028991;28;20207;-60
2022/10/13 07:31:07;;;;;;;12.27;7.20;;;;;;;;;;5028402;28;20216;-59
2022/10/13 07:33:34;;;;;;;11.20;6.17;;;;;;;;;;5028537;28;20235;-60
2022/10/13 07:36:01;;;;;;;17.97;6.77;;;;;;;;;;5028282;28;20235;-60
2022/10/13 07:38:28;;;;;;;15.33;6.57;;;;;;;;;;5028521;28;20299;-60
2022/10/13 07:40:55;;;;;;;10.13;6.53;;;;;;;;;;5028151;28;20212;-60
2022/10/13 07:43:22;;;;;;;10.20;6.90;;;;;;;;;;5028546;28;20215;-60
2022/10/13 07:45:51;;;;;;;11.60;6.23;;;;;;;;;;5028151;28;20212;-60
2022/10/13 07:48:18;;;;;;;13.37;6.80;;;;;;;;;;5028513;28;20575;-60
2022/10/13 07:50:45;;;;;;;18.83;7.23;;;;;;;;;;5028037;28;20677;-60
2022/10/13 07:53:12;;;;;;;16.57;6.33;;;;;;;;;;5027920;28;20682;-60
2022/10/13 07:55:39;;;;;;;9.53;5.73;;;;;;;;;;5027905;28;20214;-60
2022/10/13 07:58:06;;;;;;;11.23;5.93;;;;;;;;;;5028098;28;20239;-61
2022/10/13 08:00:33;;;;;;;10.37;5.77;;;;;;;;;;5027661;28;20212;-60
2022/10/13 08:03:01;;;;;;;12.43;5.80;;;;;;;;;;5027938;28;20239;-66
2022/10/13 08:05:28;;;;;;;9.17;5.47;;;;;;;;;;5027812;28;20549;-61
2022/10/13 08:07:55;;;;;;;9.57;5.73;;;;;;;;;;5028036;28;20796;-60
2022/10/13 08:10:22;;;;;;;10.80;5.67;;;;;;;;;;5027921;28;20209;-60
2022/10/13 08:12:49;;;;;;;11.40;6.17;;;;;;;;;;5027036;28;20240;-61
2022/10/13 08:15:17;;;;;;;9.57;5.70;;;;;;;;;;5027084;28;20691;-60
2022/10/13 08:17:44;;;;;;;9.70;6.23;;;;;;;;;;5026798;28;20232;-60
2022/10/13 08:20:12;;;;;;;8.83;5.30;;;;;;;;;;5026793;28;20758;-60
2022/10/13 08:22:39;;;;;;;9.23;5.07;;;;;;;;;;5026756;28;20602;-63
2022/10/13 08:25:07;;;;;;;5.80;4.73;;;;;;;;;;5026704;28;20247;-60
2022/10/13 08:27:34;;;;;;;10.90;6.23;;;;;;;;;;5038328;28;20236;-60
2022/10/13 08:30:01;;;;;;;8.80;6.07;;;;;;;;;;5028403;28;20208;-60
2022/10/13 08:32:28;;;;;;;11.93;6.23;;;;;;;;;;5024788;28;20215;-60
2022/10/13 08:34:55;;;;;;;12.47;5.70;;;;;;;;;;5026588;28;20588;-60
2022/10/13 08:37:23;;;;;;;8.83;5.53;;;;;;;;;;5025773;28;20579;-60
2022/10/13 08:39:50;;;;;;;7.93;5.57;;;;;;;;;;5025763;28;20648;-60
2022/10/13 08:42:20;;;;;;;8.70;5.30;;;;;;;;;;5015451;28;20238;-60
2022/10/13 08:44:49;;;;;;;9.63;5.37;;;;;;;;;;5018906;28;20690;-59
2022/10/13 08:47:24;;;;;;;10.73;5.37;;;;;;;;;;5026223;28;20214;-59
2022/10/13 08:49:52;;;;;;;11.20;5.93;;;;;;;;;;5026393;28;20596;-59
2022/10/13 08:52:20;;;;;;;13.97;6.47;;;;;;;;;;5026371;28;20208;-60
2022/10/13 08:54:49;;;;;;;10.47;5.93;;;;;;;;;;5025030;28;20773;-60
2022/10/13 08:57:17;;;;;;;14.97;6.03;;;;;;;;;;5012873;28;20330;-60
2022/10/13 08:59:44;;;;;;;7.90;5.70;;;;;;;;;;5025671;28;20204;-60
2022/10/13 09:02:12;;;;;;;9.20;5.33;;;;;;;;;;5026310;28;20212;-60
2022/10/13 09:04:41;;;;;;;10.73;5.57;;;;;;;;;;5025317;28;20274;-60
2022/10/13 09:07:12;;;;;;;13.07;6.13;;;;;;;;;;5023260;28;20797;-60
2022/10/13 09:09:40;;;;;;;14.27;6.13;;;;;;;;;;5022709;28;20213;-60
2022/10/13 09:12:10;;;;;;;15.47;6.40;;;;;;;;;;5023024;28;20216;-61
2022/10/13 09:14:39;;;;;;;16.33;7.20;;;;;;;;;;5024615;28;20216;-60
2022/10/13 09:17:17;;;;;;;11.93;6.13;;;;;;;;;;5029859;28;20205;-60
2022/10/13 09:19:45;;;;;;;15.13;7.30;;;;;;;;;;5021245;28;20315;-60
2022/10/13 09:22:16;;;;;;;10.90;6.67;;;;;;;;;;5031371;28;20205;-60
2022/10/13 09:24:43;;;;;;;16.90;6.67;;;;;;;;;;5029067;28;20224;-60
2022/10/13 09:27:15;;;;;;;17.73;7.57;;;;;;;;;;5029604;28;20247;-60
2022/10/13 09:29:43;;;;;;;16.87;7.93;;;;;;;;;;5010320;28;20416;-60
2022/10/13 09:32:17;;;;;;;19.43;7.83;;;;;;;;;;5026154;28;20208;-60
2022/10/13 09:34:44;;;;;;;15.17;7.77;;;;;;;;;;5028568;28;20211;-60
2022/10/13 09:37:19;;;;;;;22.53;8.37;;;;;;;;;;5029630;28;20213;-60
2022/10/13 09:39:47;;;;;;;17.87;8.37;;;;;;;;;;5029431;28;20243;-60
2022/10/13 09:42:21;;;;;;;21.23;7.93;;;;;;;;;;5029360;28;20208;-60
2022/10/13 09:44:49;;;;;;;22.67;8.27;;;;;;;;;;5029916;28;20674;-60
2022/10/13 09:47:19;;;;;;;17.57;8.20;;;;;;;;;;5029422;28;20204;-61
2022/10/13 09:49:47;;;;;;;19.47;8.60;;;;;;;;;;5029617;28;20266;-60
2022/10/13 09:52:16;;;;;;;17.37;7.77;;;;;;;;;;5029319;28;20216;-60
2022/10/13 09:54:48;;;;;;;17.70;8.37;;;;;;;;;;5029623;28;20216;-60
2022/10/13 09:57:25;;;;;;;19.23;8.30;;;;;;;;;;5029447;28;20205;-61
2022/10/13 09:59:53;;;;;;;24.07;8.83;;;;;;;;;;5029039;28;20208;-60
2022/10/13 10:02:24;;;;;;;20.60;9.07;;;;;;;;;;5029310;28;20216;-60
2022/10/13 10:04:53;;;;;;;20.20;8.77;;;;;;;;;;5029124;28;20926;-60
2022/10/13 10:07:22;;;;;;;18.00;8.97;;;;;;;;;;5028825;28;20208;-64
2022/10/13 10:09:51;;;;;;;20.80;9.23;;;;;;;;;;5029403;28;20209;-63
2022/10/13 10:12:21;;;;;;;24.70;8.80;;;;;;;;;;5028676;28;20205;-63
2022/10/13 10:14:50;;;;;;;24.00;8.73;;;;;;;;;;5029558;28;20219;-65
2022/10/13 10:17:20;;;;;;;19.80;8.30;;;;;;;;;;5029418;28;20216;-65
2022/10/13 10:19:52;;;;;;;19.53;9.07;;;;;;;;;;5028512;28;20707;-64
2022/10/13 10:22:23;;;;;;;21.80;9.13;;;;;;;;;;5028789;28;20215;-65
2022/10/13 10:24:52;;;;;;;24.07;9.47;;;;;;;;;;5026361;28;20216;-62
2022/10/13 10:27:22;;;;;;;20.40;9.00;;;;;;;;;;5028483;28;20250;-64
2022/10/13 10:29:53;;;;;;;24.60;9.63;;;;;;;;;;5029149;28;20204;-64
2022/10/13 10:32:26;;;;;;;21.17;8.77;;;;;;;;;;5028537;28;20228;-64
2022/10/13 10:34:54;;;;;;;22.80;9.87;;;;;;;;;;5028674;28;20255;-64
2022/10/13 10:37:26;;;;;;;27.37;10.43;;;;;;;;;;5029029;28;20217;-63
2022/10/13 10:39:59;;;;;;;25.37;10.40;;;;;;;;;;5028194;28;20228;-70
2022/10/13 10:42:37;;;;;;;29.73;10.47;;;;;;;;;;5028503;28;20217;-65
2022/10/13 10:45:13;;;;;;;33.47;12.10;;;;;;;;;;5027940;28;20671;-63
2022/10/13 10:47:42;;;;;;;26.23;10.83;;;;;;;;;;5028192;28;20207;-63
2022/10/13 10:50:14;;;;;;;27.17;10.53;;;;;;;;;;5025823;28;20208;-63
2022/10/13 10:52:46;;;;;;;24.13;9.67;;;;;;;;;;5019539;28;20205;-63
2022/10/13 10:55:18;;;;;;;26.87;11.57;;;;;;;;;;5020728;28;20648;-63
2022/10/13 10:57:49;;;;;;;27.87;11.53;;;;;;;;;;5028426;28;20288;-64
2022/10/13 11:00:19;;;;;;;20.03;10.13;;;;;;;;;;5026171;28;20212;-63
2022/10/13 11:02:53;;;;;;;20.77;10.03;;;;;;;;;;5027613;28;20208;-62
2022/10/13 11:05:21;;;;;;;24.17;10.97;;;;;;;;;;5028271;28;20216;-62
2022/10/13 11:07:56;;;;;;;23.17;11.47;;;;;;;;;;5026854;28;20738;-63
2022/10/13 11:10:25;;;;;;;23.10;10.63;;;;;;;;;;5026207;28;20219;-62
2022/10/13 11:13:09;;;;;;;21.17;9.00;;;;;;;;;;5026382;28;20212;-63
2022/10/13 11:15:43;;;;;;;18.60;8.40;;;;;;;;;;5017149;28;20224;-64
2022/10/13 11:18:29;;;;;;;21.53;10.47;;;;;;;;;;5026538;28;20856;-67
2022/10/13 11:20:59;;;;;;;21.07;10.67;;;;;;;;;;5026709;28;20227;-69
2022/10/13 11:23:30;;;;;;;19.77;9.37;;;;;;;;;;5022442;28;20246;-68
2022/10/13 11:26:19;;;;;;;22.10;10.83;;;;;;;;;;5027053;28;20695;-70
2022/10/13 11:28:47;;;;;;;20.70;10.03;;;;;;;;;;5016807;28;20663;-69
2022/10/13 11:31:32;;;;;;;19.60;9.53;;;;;;;;;;5026377;28;20227;-70
2022/10/13 11:34:01;;;;;;;19.90;10.10;;;;;;;;;;5025170;28;20208;-68
2022/10/13 11:36:32;;;;;;;20.70;9.77;;;;;;;;;;5025384;28;20259;-70
2022/10/13 11:39:02;;;;;;;22.50;9.67;;;;;;;;;;5026151;28;20315;-69
2022/10/13 11:41:32;;;;;;;17.00;8.90;;;;;;;;;;5025771;28;20200;-70
2022/10/13 11:44:03;;;;;;;16.73;8.83;;;;;;;;;;5025749;28;20579;-67
2022/10/13 11:46:38;;;;;;;21.53;9.10;;;;;;;;;;5026425;28;20205;-66
2022/10/13 11:49:29;;;;;;;16.63;9.33;;;;;;;;;;5026423;28;20215;-67
2022/10/13 11:52:04;;;;;;;22.00;8.17;;;;;;;;;;5026148;28;20222;-67
2022/10/13 11:54:34;;;;;;;17.93;8.37;;;;;;;;;;5026776;28;20773;-66
2022/10/13 11:57:03;;;;;;;20.70;8.17;;;;;;;;;;5026990;28;20223;-66
2022/10/13 11:59:31;;;;;;;19.43;9.17;;;;;;;;;;5026882;28;20227;-67
2022/10/13 12:02:00;;;;;;;13.97;7.53;;;;;;;;;;5026737;28;20211;-67
2022/10/13 12:04:28;;;;;;;17.38;8.82;;;;;;;;;;5026614;28;20733;-66
2022/10/13 12:07:00;;;;;;;13.13;7.93;;;;;;;;;;5027067;28;20224;-66
2022/10/13 12:09:28;;;;;;;20.40;8.73;;;;;;;;;;5026163;28;20227;-67
2022/10/13 12:11:59;;;;;;;16.23;7.80;;;;;;;;;;5026702;28;20200;-66
2022/10/13 12:14:30;;;;;;;12.10;7.70;;;;;;;;;;5026571;28;20216;-66
2022/10/13 12:17:00;;;;;;;11.65;6.70;;;;;;;;;;5007026;28;20562;-67
2022/10/13 12:19:28;;;;;;;10.48;6.93;;;;;;;;;;5006924;28;20237;-67
2022/10/13 12:21:56;;;;;;;10.98;7.00;;;;;;;;;;5024799;28;20212;-66
2022/10/13 12:24:24;;;;;;;11.60;6.70;;;;;;;;;;5026398;28;20204;-68
2022/10/13 12:26:51;;;;;;;12.73;6.40;;;;;;;;;;5026554;28;20567;-67
2022/10/13 12:29:20;;;;;;;13.30;6.53;;;;;;;;;;5026725;28;20934;-67
2022/10/13 12:31:48;;;;;;;12.73;7.20;;;;;;;;;;5026608;28;20208;-66
2022/10/13 12:34:20;;;;;;;13.60;7.15;;;;;;;;;;5026390;28;20674;-67
2022/10/13 12:36:53;;;;;;;13.20;6.38;;;;;;;;;;5026527;28;20207;-66
2022/10/13 12:39:20;;;;;;;10.93;6.28;;;;;;;;;;5024648;28;20243;-65
2022/10/13 12:41:47;;;;;;;12.82;6.97;;;;;;;;;;5026561;28;20216;-67
2022/10/13 12:44:15;;;;;;;12.40;5.38;;;;;;;;;;5025452;28;20685;-66
2022/10/13 12:46:43;;;;;;;10.30;5.82;;;;;;;;;;5024985;28;20212;-66
2022/10/13 12:49:15;;;;;;;15.02;6.68;;;;;;;;;;5028315;28;20208;-68
2022/10/13 12:51:45;;;;;;;11.70;6.40;;;;;;;;;;5026627;28;20200;-67
2022/10/13 12:54:18;;;;;;;13.07;6.68;;;;;;;;;;5029661;28;20210;-65
2022/10/13 12:56:45;;;;;;;13.80;7.25;;;;;;;;;;5028884;28;20200;-66
2022/10/13 12:59:16;;;;;;;16.30;7.40;;;;;;;;;;5029115;28;20223;-67
2022/10/13 13:01:43;;;;;;;10.02;6.43;;;;;;;;;;5029256;28;20266;-66
2022/10/13 13:04:18;;;;;;;11.70;6.88;;;;;;;;;;5028762;28;20220;-66
2022/10/13 13:06:56;;;;;;;11.82;6.55;;;;;;;;;;5030214;28;20218;-66
2022/10/13 13:09:26;;;;;;;9.88;6.32;;;;;;;;;;5029610;28;20200;-66
2022/10/13 13:12:11;;;;;;;14.10;6.50;;;;;;;;;;5029976;28;20208;-65
2022/10/13 13:14:40;;;;;;;8.80;6.65;;;;;;;;;;5029738;28;20636;-65
2022/10/13 13:17:09;;;;;;;13.10;7.45;;;;;;;;;;5029544;28;20239;-65
2022/10/13 13:19:37;;;;;;;12.55;6.78;;;;;;;;;;5029679;28;20228;-65
2022/10/13 13:22:06;;;;;;;10.73;6.93;;;;;;;;;;5029901;28;20383;-65
2022/10/13 13:24:34;;;;;;;12.95;6.90;;;;;;;;;;5028281;28;20204;-64
2022/10/13 13:27:02;;;;;;;12.10;7.05;;;;;;;;;;5029134;28;20246;-71
2022/10/13 13:29:29;;;;;;;11.15;7.53;;;;;;;;;;5026072;28;20662;-65
2022/10/13 13:31:56;;;;;;;14.90;7.43;;;;;;;;;;5023479;28;20212;-67
2022/10/13 13:34:23;;;;;;;11.45;6.97;;;;;;;;;;5028932;28;20208;-66
2022/10/13 13:36:50;;;;;;;13.90;7.90;;;;;;;;;;5029350;28;20208;-66
2022/10/13 13:39:19;;;;;;;13.63;7.60;;;;;;;;;;5027192;28;20228;-65
2022/10/13 13:41:46;;;;;;;11.20;7.70;;;;;;;;;;5028953;28;20952;-65
2022/10/13 13:44:13;;;;;;;10.68;7.10;;;;;;;;;;5028953;28;20556;-66
2022/10/13 13:46:40;;;;;;;10.75;7.28;;;;;;;;;;5028784;28;20201;-65
2022/10/13 13:49:08;;;;;;;11.40;7.68;;;;;;;;;;5028995;28;20217;-66
2022/10/13 13:51:35;;;;;;;16.30;8.07;;;;;;;;;;5029045;28;20693;-65
2022/10/13 13:54:02;;;;;;;16.15;8.15;;;;;;;;;;5028734;28;20247;-66
2022/10/13 13:56:30;;;;;;;10.43;7.57;;;;;;;;;;5028249;28;20273;-66
2022/10/13 13:58:57;;;;;;;10.95;7.07;;;;;;;;;;5028395;28;20204;-65
2022/10/13 14:01:24;;;;;;;12.35;7.75;;;;;;;;;;5027731;28;20205;-67
2022/10/13 14:03:51;;;;;;;13.30;7.97;;;;;;;;;;5028534;28;20220;-68
2022/10/13 14:06:19;;;;;;;14.10;7.57;;;;;;;;;;5028670;28;20200;-69
2022/10/13 14:08:46;;;;;;;12.10;7.22;;;;;;;;;;5028378;28;20208;-63
2022/10/13 14:11:13;;;;;;;12.05;7.55;;;;;;;;;;5028713;28;20212;-65
2022/10/13 14:13:41;;;;;;;10.40;7.22;;;;;;;;;;5028762;28;20215;-65
2022/10/13 14:16:12;;;;;;;10.57;7.40;;;;;;;;;;5026789;28;20208;-65
2022/10/13 14:18:39;;;;;;;14.40;7.28;;;;;;;;;;5027319;28;20227;-66
2022/10/13 14:21:07;;;;;;;15.07;7.85;;;;;;;;;;5032698;28;20702;-66
2022/10/13 14:23:34;;;;;;;18.70;10.02;;;;;;;;;;5027885;28;20205;-76
2022/10/13 14:26:05;;;;;;;15.65;9.13;;;;;;;;;;5029626;28;20212;-74
2022/10/13 14:28:33;;;;;;;12.00;7.90;;;;;;;;;;5030441;28;20227;-64
2022/10/13 14:31:04;;;;;;;12.30;7.75;;;;;;;;;;5026895;28;20582;-61
2022/10/13 14:33:31;;;;;;;12.85;8.13;;;;;;;;;;5034966;28;20302;-67
2022/10/13 14:36:01;;;;;;;10.98;7.90;;;;;;;;;;5033375;28;20215;-67
2022/10/13 14:38:29;;;;;;;16.33;8.85;;;;;;;;;;5030585;28;20216;-64
2022/10/13 14:40:59;;;;;;;14.30;7.90;;;;;;;;;;5019010;28;20228;-69
2022/10/13 14:43:26;;;;;;;14.82;8.18;;;;;;;;;;5027645;28;20220;-64